Time;durP1;ratioP1;P1;durP2;ratioP2;P2;SDS_P1;SDS_P2;PMS_P1;PMS_P2;Temp;Humidity;BMP_temperature;BMP_pressure;BME280_temperature;BME280_humidity;BME280_pressure;Samples;Min_cycle;Max_cycle;Signal;HPM_P1;HPM_P2
2022/09/16 00:00:42;;;;;;;0.10;0.10;;;19.30;99.90;;;;;;5080781;28;20058;-77
2022/09/16 00:03:11;;;;;;;0.10;0.10;;;20.50;99.90;;;;;;5081745;28;20316;-77
2022/09/16 00:05:50;;;;;;;2.65;2.42;;;19.10;99.90;;;;;;5061381;28;20016;-78
2022/09/16 00:08:16;;;;;;;0.10;0.10;;;19.10;99.90;;;;;;5078235;28;20024;-76
2022/09/16 00:10:42;;;;;;;0.10;0.10;;;19.10;99.90;;;;;;5078358;28;20130;-82
2022/09/16 00:13:09;;;;;;;0.10;0.10;;;19.00;99.90;;;;;;5078138;28;20343;-83
2022/09/16 00:15:35;;;;;;;0.10;0.10;;;19.00;99.90;;;;;;5078080;28;20036;-78
2022/09/16 00:18:01;;;;;;;0.10;0.10;;;;;;;;;;5060015;28;20024;-83
2022/09/16 00:20:27;;;;;;;0.10;0.10;;;18.80;99.90;;;;;;5078081;28;20478;-82
2022/09/16 00:22:53;;;;;;;0.10;0.10;;;18.70;99.90;;;;;;5078021;28;20028;-84
2022/09/16 00:25:19;;;;;;;0.10;0.10;;;18.70;99.90;;;;;;5078187;28;20392;-78
2022/09/16 00:27:49;;;;;;;0.00;0.00;;;18.60;99.90;;;;;;5059567;28;20582;-81
2022/09/16 00:30:15;;;;;;;0.00;0.00;;;18.50;99.90;;;;;;5078036;28;20025;-79
2022/09/16 00:32:41;;;;;;;0.10;0.10;;;15.40;99.90;;;;;;5077460;28;20030;-78
2022/09/16 00:35:07;;;;;;;0.00;0.00;;;18.60;99.90;;;;;;5059641;28;20309;-78
2022/09/16 00:37:33;;;;;;;0.10;0.10;;;18.50;99.90;;;;;;5077916;28;20135;-88
2022/09/16 00:39:59;;;;;;;0.10;0.10;;;18.40;99.90;;;;;;5078066;28;20665;-77
2022/09/16 00:42:25;;;;;;;0.00;0.00;;;18.40;99.90;;;;;;5062927;28;20222;-80
2022/09/16 00:45:01;;;;;;;0.10;0.10;;;18.40;99.90;;;;;;5081624;28;20066;-79
2022/09/16 00:47:29;;;;;;;0.10;0.10;;;18.30;99.90;;;;;;5081689;28;20020;-78
2022/09/16 00:50:01;;;;;;;1.40;1.40;;;16.10;99.90;;;;;;5081689;28;20028;-82
2022/09/16 00:52:29;;;;;;;0.10;0.10;;;18.30;99.90;;;;;;5081425;28;20343;-79
2022/09/16 00:54:55;;;;;;;0.10;0.10;;;18.20;99.90;;;;;;5081572;28;20008;-84
2022/09/16 00:57:21;;;;;;;0.10;0.10;;;18.30;99.90;;;;;;5063264;28;20026;-82
2022/09/16 00:59:52;;;;;;;0.10;0.10;;;18.20;99.90;;;;;;5081594;28;20020;-79
2022/09/16 01:02:20;;;;;;;0.10;0.10;;;18.10;99.90;;;;;;5081700;28;20312;-80
2022/09/16 01:05:03;;;;;;;0.10;0.10;;;18.00;99.90;;;;;;5063438;28;20038;-80
2022/09/16 01:07:36;;;;;;;;;;;18.00;99.90;;;;;;5065491;28;20081;-82
2022/09/16 01:10:02;;;;;;;0.30;0.30;;;18.00;99.90;;;;;;5082997;28;20462;-78
2022/09/16 01:12:32;;;;;;;10.52;8.77;;;18.10;99.90;;;;;;5082559;28;20035;-82
2022/09/16 01:14:59;;;;;;;0.10;0.10;;;18.10;99.90;;;;;;5082242;28;20099;-81
2022/09/16 01:17:47;;;;;;;0.10;0.10;;;18.10;99.90;;;;;;5064040;28;20111;-82
2022/09/16 01:20:36;;;;;;;0.10;0.10;;;18.10;99.90;;;;;;5083140;28;20039;-82
2022/09/16 01:24:02;;;;;;;0.10;0.10;;;18.10;99.90;;;;;;5081129;28;20040;-81
2022/09/16 01:26:46;;;;;;;0.10;0.10;;;18.00;99.90;;;;;;4976322;28;20066;-85
2022/09/16 01:29:30;;;;;;;;;;;17.50;99.90;;;;;;4978553;28;20038;-79
2022/09/16 01:32:02;;;;;;;0.10;0.10;;;16.60;99.90;;;;;;4978706;28;20169;-85
2022/09/16 01:35:02;;;;;;;0.10;0.10;;;17.80;99.90;;;;;;4978464;28;20340;-82
2022/09/16 01:37:49;;;;;;;0.10;0.10;;;17.70;99.90;;;;;;4978674;28;20034;-86
2022/09/16 01:40:27;;;;;;;0.10;0.10;;;15.50;99.90;;;;;;4978572;28;20497;-86
2022/09/16 01:43:12;;;;;;;0.10;0.10;;;17.70;99.90;;;;;;4978413;28;20104;-79
2022/09/16 01:46:02;;;;;;;0.10;0.10;;;17.60;99.90;;;;;;4978338;28;20087;-77
2022/09/16 01:48:37;;;;;;;0.10;0.10;;;17.60;99.90;;;;;;4978343;28;20035;-77
2022/09/16 01:51:30;;;;;;;0.10;0.10;;;17.50;99.90;;;;;;4978200;28;20018;-77
2022/09/16 01:54:06;;;;;;;0.10;0.10;;;17.60;99.90;;;;;;4977997;28;20027;-75
2022/09/16 01:56:58;;;;;;;0.10;0.10;;;17.40;99.90;;;;;;4978336;28;20029;-85
2022/09/16 01:59:33;;;;;;;0.08;0.08;;;17.40;99.90;;;;;;4978203;28;20057;-77
2022/09/16 02:02:24;;;;;;;0.10;0.10;;;17.30;99.90;;;;;;5029449;28;20060;-80
2022/09/16 02:04:55;;;;;;;0.10;0.10;;;17.30;99.90;;;;;;5059918;28;20044;-82
2022/09/16 02:07:26;;;;;;;0.10;0.10;;;17.30;99.90;;;;;;5042548;28;20039;-78
2022/09/16 02:09:57;;;;;;;0.10;0.10;;;16.90;99.90;;;;;;5060152;28;20106;-76
2022/09/16 02:12:28;;;;;;;0.10;0.10;;;17.20;99.90;;;;;;5059786;28;20017;-77
2022/09/16 02:15:00;;;;;;;0.10;0.10;;;17.20;99.90;;;;;;5060103;28;20483;-79
2022/09/16 02:17:30;;;;;;;0.10;0.10;;;17.20;99.90;;;;;;5042193;28;20489;-81
2022/09/16 02:20:10;;;;;;;0.10;0.10;;;17.10;99.90;;;;;;5060231;28;20012;-81
2022/09/16 02:22:49;;;;;;;0.10;0.10;;;17.20;99.90;;;;;;5059513;28;20032;-80
2022/09/16 02:25:18;;;;;;;0.10;0.10;;;17.20;99.90;;;;;;5041709;28;20025;-79
2022/09/16 02:27:47;;;;;;;0.10;0.10;;;17.20;99.90;;;;;;5060229;28;20709;-80
2022/09/16 02:30:17;;;;;;;0.10;0.10;;;17.20;99.90;;;;;;5060068;28;20112;-77
2022/09/16 02:32:47;;;;;;;0.00;0.00;;;17.20;99.90;;;;;;5060022;28;20025;-80
2022/09/16 02:35:16;;;;;;;0.10;0.10;;;17.20;99.90;;;;;;5059162;28;20123;-81
2022/09/16 02:38:21;;;;;;;0.10;0.10;;;17.20;99.90;;;;;;5059314;28;20021;-84
2022/09/16 02:40:57;;;;;;;0.10;0.10;;;17.20;99.90;;;;;;5059246;28;20020;-86
2022/09/16 02:43:24;;;;;;;0.10;0.10;;;17.10;99.90;;;;;;5059589;28;20032;-77
2022/09/16 02:46:08;;;;;;;0.10;0.10;;;17.20;99.90;;;;;;5074698;28;20509;-79
2022/09/16 02:48:34;;;;;;;;;;;17.10;99.90;;;;;;5079967;28;20274;-81
2022/09/16 02:51:21;;;;;;;0.10;0.10;;;17.10;99.90;;;;;;5079973;28;20014;-77
2022/09/16 02:53:57;;;;;;;0.10;0.10;;;17.10;99.90;;;;;;5060917;28;20020;-84
2022/09/16 02:56:30;;;;;;;0.10;0.10;;;17.00;99.90;;;;;;5079015;28;20482;-82
2022/09/16 02:58:57;;;;;;;0.10;0.10;;;16.50;99.90;;;;;;5060722;28;20275;-83
2022/09/16 03:01:23;;;;;;;0.10;0.10;;;17.00;99.90;;;;;;5060940;28;20065;-83
2022/09/16 03:03:53;;;;;;;0.10;0.10;;;17.10;99.90;;;;;;5078991;28;20062;-90
2022/09/16 03:06:22;;;;;;;0.10;0.10;;;17.10;99.90;;;;;;5078157;28;20101;-80
2022/09/16 03:08:49;;;;;;;0.10;0.10;;;17.10;99.90;;;;;;5079239;28;20526;-80
2022/09/16 03:11:27;;;;;;;0.10;0.10;;;17.00;99.90;;;;;;5078979;28;20028;-86
2022/09/16 03:14:28;;;;;;;0.10;0.10;;;17.70;99.90;;;;;;5079244;28;20020;-77
2022/09/16 03:17:00;;;;;;;0.10;0.10;;;17.00;99.90;;;;;;5079327;28;20204;-75
2022/09/16 03:19:59;;;;;;;0.10;0.10;;;17.00;99.90;;;;;;5083364;28;20788;-82
2022/09/16 03:22:50;;;;;;;3.50;3.22;;;17.00;99.90;;;;;;5083774;28;20111;-82
2022/09/16 03:25:21;;;;;;;0.10;0.10;;;16.70;99.90;;;;;;5067054;28;20639;-78
2022/09/16 03:28:23;;;;;;;0.10;0.10;;;16.90;99.90;;;;;;5085996;28;20337;-76
2022/09/16 03:31:07;;;;;;;0.10;0.10;;;16.90;99.90;;;;;;4981257;28;20039;-76
2022/09/16 03:33:40;;;;;;;0.10;0.10;;;16.90;99.90;;;;;;4979200;28;20042;-75
2022/09/16 03:36:07;;;;;;;;;;;16.90;99.90;;;;;;4979354;28;20033;-79
2022/09/16 03:38:35;;;;;;;0.10;0.10;;;16.90;99.90;;;;;;4977055;28;19905;-79
2022/09/16 03:41:03;;;;;;;0.10;0.10;;;16.90;99.90;;;;;;4976331;28;20027;-78
2022/09/16 03:43:29;;;;;;;0.10;0.10;;;16.90;99.90;;;;;;4976543;28;20051;-81
2022/09/16 03:45:55;;;;;;;0.10;0.10;;;16.80;99.90;;;;;;4976366;28;20049;-80
2022/09/16 03:48:21;;;;;;;0.10;0.10;;;16.80;99.90;;;;;;4976473;28;20027;-81
2022/09/16 03:50:46;;;;;;;0.10;0.10;;;16.80;99.90;;;;;;4976421;28;20323;-78
2022/09/16 03:53:12;;;;;;;0.10;0.10;;;;;;;;;;4976256;28;20050;-80
2022/09/16 03:55:38;;;;;;;0.10;0.10;;;16.80;99.90;;;;;;4976427;28;20030;-80
2022/09/16 03:58:04;;;;;;;0.10;0.10;;;15.40;99.90;;;;;;4960591;28;20088;-78
2022/09/16 04:00:30;;;;;;;0.10;0.10;;;16.80;99.90;;;;;;4977341;28;20069;-80
2022/09/16 04:02:56;;;;;;;0.10;0.10;;;16.80;99.90;;;;;;4977848;28;20573;-84
2022/09/16 04:05:21;;;;;;;0.10;0.10;;;16.90;99.90;;;;;;4984099;28;20117;-76
2022/09/16 04:07:48;;;;;;;0.85;0.85;;;16.90;99.90;;;;;;5078657;28;20383;-77
2022/09/16 04:10:14;;;;;;;0.10;0.10;;;16.90;99.90;;;;;;5078419;28;20506;-80
2022/09/16 04:12:40;;;;;;;0.10;0.10;;;16.90;99.90;;;;;;5079431;28;20031;-81
2022/09/16 04:15:06;;;;;;;0.10;0.10;;;16.90;99.90;;;;;;5080465;28;20099;-83
2022/09/16 04:17:33;;;;;;;0.10;0.10;;;;;;;;;;5063569;28;20536;-79
2022/09/16 04:19:58;;;;;;;0.10;0.10;;;17.20;99.90;;;;;;5082222;28;20028;-87
2022/09/16 04:22:28;;;;;;;0.10;0.10;;;16.90;99.90;;;;;;5082585;28;20658;-77
2022/09/16 04:24:54;;;;;;;0.10;0.10;;;16.80;99.90;;;;;;5082351;28;20336;-82
2022/09/16 04:27:19;;;;;;;0.10;0.10;;;16.80;99.90;;;;;;5082110;28;20024;-77
2022/09/16 04:29:45;;;;;;;0.10;0.10;;;16.70;99.90;;;;;;5063095;28;20180;-86
2022/09/16 04:32:11;;;;;;;0.10;0.10;;;16.70;99.90;;;;;;5082174;28;20105;-81
2022/09/16 04:34:36;;;;;;;0.10;0.10;;;16.70;99.90;;;;;;5063837;28;20020;-79
2022/09/16 04:37:03;;;;;;;0.10;0.10;;;16.70;99.90;;;;;;5082309;28;20077;-79
2022/09/16 04:39:29;;;;;;;0.10;0.10;;;16.70;99.90;;;;;;5063537;28;20077;-79
2022/09/16 04:41:55;;;;;;;0.10;0.10;;;16.70;99.90;;;;;;5082124;28;20039;-80
2022/09/16 04:44:20;;;;;;;0.10;0.10;;;16.70;99.90;;;;;;5082040;28;20101;-79
2022/09/16 04:46:46;;;;;;;0.10;0.10;;;16.70;99.90;;;;;;5082159;28;20028;-88
2022/09/16 04:49:12;;;;;;;0.10;0.10;;;16.70;99.90;;;;;;5063533;28;20168;-78
2022/09/16 04:51:38;;;;;;;0.10;0.10;;;16.70;99.90;;;;;;5081667;28;20494;-83
2022/09/16 04:54:04;;;;;;;0.10;0.10;;;;;;;;;;5081356;28;20646;-86
2022/09/16 04:56:31;;;;;;;0.43;0.43;;;16.80;99.90;;;;;;5081240;28;20210;-83
2022/09/16 04:59:01;;;;;;;0.20;0.20;;;18.30;99.90;;;;;;5081133;28;20052;-83
2022/09/16 05:01:30;;;;;;;0.10;0.10;;;16.60;99.90;;;;;;5081811;28;20032;-86
2022/09/16 05:03:58;;;;;;;1.48;1.42;;;16.70;99.90;;;;;;5081737;28;20096;-75
2022/09/16 05:06:26;;;;;;;0.10;0.10;;;16.80;99.90;;;;;;5062741;28;20518;-76
2022/09/16 05:08:53;;;;;;;0.17;0.17;;;16.80;99.90;;;;;;5081142;28;20423;-77
2022/09/16 05:11:22;;;;;;;0.10;0.10;;;16.80;99.90;;;;;;5081304;28;20024;-76
2022/09/16 05:13:48;;;;;;;0.10;0.10;;;16.80;99.90;;;;;;5081210;28;20035;-78
2022/09/16 05:16:16;;;;;;;0.10;0.10;;;16.90;99.90;;;;;;5081404;28;20024;-82
2022/09/16 05:18:44;;;;;;;0.10;0.10;;;16.90;99.90;;;;;;5081728;28;20024;-81
2022/09/16 05:21:13;;;;;;;0.10;0.10;;;17.50;99.90;;;;;;5063810;28;20213;-77
2022/09/16 05:23:39;;;;;;;0.10;0.10;;;17.20;99.90;;;;;;5082762;28;20521;-87
2022/09/16 05:26:10;;;;;;;0.10;0.10;;;17.10;99.90;;;;;;5085395;28;20043;-77
2022/09/16 05:28:42;;;;;;;0.20;0.20;;;17.10;99.90;;;;;;5082281;28;20024;-77
2022/09/16 05:31:16;;;;;;;0.10;0.10;;;20.70;99.90;;;;;;5063332;28;20362;-76
2022/09/16 05:33:45;;;;;;;0.10;0.10;;;17.20;99.90;;;;;;5062938;28;20020;-76
2022/09/16 05:36:15;;;;;;;3.10;3.00;;;17.30;99.90;;;;;;5080205;28;20012;-78
2022/09/16 05:38:43;;;;;;;0.10;0.10;;;17.40;99.90;;;;;;5080553;28;20518;-74
2022/09/16 05:41:10;;;;;;;0.10;0.10;;;17.40;99.90;;;;;;5080460;28;20077;-84
2022/09/16 05:43:59;;;;;;;0.20;0.20;;;17.90;99.90;;;;;;5080183;28;20082;-77
2022/09/16 05:47:15;;;;;;;;;;;;;;;;;;;;;
2022/09/16 05:49:53;;;;;;;0.10;0.10;;;;;;;;;;5079844;28;20016;-78
2022/09/16 05:52:19;;;;;;;0.10;0.10;;;17.80;99.90;;;;;;5062118;28;20111;-78
2022/09/16 05:54:47;;;;;;;0.10;0.10;;;18.30;99.90;;;;;;5080431;28;20132;-78
2022/09/16 05:57:13;;;;;;;0.10;0.10;;;18.00;99.90;;;;;;5080228;28;20055;-78
2022/09/16 05:59:41;;;;;;;0.10;0.10;;;;;;;;;;5080392;28;20040;-79
2022/09/16 06:02:22;;;;;;;0.10;0.10;;;18.30;99.90;;;;;;5080272;28;20560;-76
2022/09/16 06:04:48;;;;;;;0.10;0.10;;;;;;;;;;5080497;28;20017;-76
2022/09/16 06:07:17;;;;;;;0.10;0.10;;;18.40;99.90;;;;;;5080792;28;20024;-79
2022/09/16 06:09:43;;;;;;;0.10;0.10;;;;;;;;;;5061751;28;20020;-77
2022/09/16 06:12:12;;;;;;;0.10;0.10;;;18.30;99.90;;;;;;5080573;28;20451;-85
2022/09/16 06:14:38;;;;;;;0.10;0.10;;;;;;;;;;5061852;28;20036;-79
2022/09/16 06:17:03;;;;;;;0.10;0.10;;;18.30;99.90;;;;;;5079587;28;20344;-76
2022/09/16 06:19:29;;;;;;;0.10;0.10;;;18.30;99.90;;;;;;5079733;28;20031;-82
2022/09/16 06:21:55;;;;;;;0.10;0.10;;;;;;;;;;5080032;28;20119;-76
2022/09/16 06:24:21;;;;;;;0.10;0.10;;;18.40;99.90;;;;;;5079024;28;20089;-76
2022/09/16 06:26:48;;;;;;;0.10;0.10;;;18.60;99.90;;;;;;5079529;28;20336;-76
2022/09/16 06:29:15;;;;;;;0.00;0.00;;;18.80;99.90;;;;;;5079409;28;20172;-76
2022/09/16 06:31:41;;;;;;;0.10;0.10;;;19.00;99.90;;;;;;5079477;28;20489;-76
2022/09/16 06:34:14;;;;;;;0.10;0.10;;;19.30;99.90;;;;;;5078997;28;20036;-78
2022/09/16 06:36:39;;;;;;;1.20;1.07;;;19.50;99.90;;;;;;5060570;28;20020;-78
2022/09/16 06:39:06;;;;;;;0.10;0.10;;;19.70;99.90;;;;;;5080029;28;20020;-78
2022/09/16 06:41:32;;;;;;;0.00;0.00;;;19.80;99.90;;;;;;5080175;28;20032;-75
2022/09/16 06:44:00;;;;;;;0.10;0.10;;;19.00;99.90;;;;;;5079264;28;20048;-83
2022/09/16 06:46:27;;;;;;;0.10;0.10;;;20.30;99.90;;;;;;5079987;28;20043;-79
2022/09/16 06:48:57;;;;;;;0.10;0.10;;;20.40;99.90;;;;;;5079504;28;20236;-77
2022/09/16 06:51:27;;;;;;;0.00;0.00;;;20.50;99.90;;;;;;5080541;28;20024;-79
2022/09/16 06:53:57;;;;;;;0.10;0.10;;;20.60;99.90;;;;;;5079214;28;20327;-76
2022/09/16 06:56:29;;;;;;;0.10;0.10;;;20.70;99.90;;;;;;5060474;28;20335;-78
2022/09/16 06:58:54;;;;;;;0.10;0.10;;;20.90;99.90;;;;;;5060460;28;20529;-79
2022/09/16 07:01:26;;;;;;;0.00;0.00;;;20.90;99.90;;;;;;5078759;28;20028;-82
2022/09/16 07:03:53;;;;;;;0.10;0.10;;;20.90;99.90;;;;;;5078869;28;20020;-77
2022/09/16 07:06:21;;;;;;;0.00;0.00;;;24.10;99.90;;;;;;5060337;28;20028;-77
2022/09/16 07:08:47;;;;;;;0.10;0.10;;;21.70;99.90;;;;;;5078777;28;20028;-77
2022/09/16 07:11:18;;;;;;;0.00;0.00;;;21.10;99.90;;;;;;5060391;28;20344;-80
2022/09/16 07:13:46;;;;;;;0.10;0.10;;;21.20;99.90;;;;;;5061412;28;20028;-76
2022/09/16 07:16:14;;;;;;;0.00;0.00;;;21.40;99.90;;;;;;5060833;28;20028;-79
2022/09/16 07:18:41;;;;;;;0.10;0.10;;;21.50;99.90;;;;;;5062497;28;20240;-77
2022/09/16 07:21:15;;;;;;;7.57;7.20;;;21.90;99.90;;;;;;5079602;28;20023;-77
2022/09/16 07:23:42;;;;;;;2.10;1.52;;;20.50;99.90;;;;;;5079717;28;20035;-80
2022/09/16 07:26:10;;;;;;;0.10;0.10;;;21.70;99.90;;;;;;5080087;28;20016;-80
2022/09/16 07:28:38;;;;;;;0.10;0.10;;;22.50;99.90;;;;;;5079316;28;20032;-79
2022/09/16 07:31:10;;;;;;;0.00;0.00;;;22.20;99.90;;;;;;5078566;28;20193;-78
2022/09/16 07:33:38;;;;;;;0.10;0.10;;;22.30;99.90;;;;;;5080363;28;20035;-78
2022/09/16 07:36:06;;;;;;;0.10;0.10;;;22.10;99.90;;;;;;5078509;28;20286;-80
2022/09/16 07:38:32;;;;;;;0.10;0.10;;;22.30;99.90;;;;;;5078398;28;20020;-80
2022/09/16 07:41:06;;;;;;;0.10;0.10;;;22.20;99.90;;;;;;5059960;28;20521;-77
2022/09/16 07:43:32;;;;;;;0.10;0.10;;;22.20;99.90;;;;;;5060763;28;20517;-80
2022/09/16 07:45:58;;;;;;;0.00;0.00;;;22.20;99.90;;;;;;5060140;28;20202;-77
2022/09/16 07:48:24;;;;;;;0.10;0.10;;;22.40;99.90;;;;;;5060542;28;20570;-77
2022/09/16 07:51:12;;;;;;;0.10;0.10;;;22.60;99.90;;;;;;5078142;28;20354;-78
2022/09/16 07:53:38;;;;;;;0.00;0.00;;;22.40;99.90;;;;;;5078672;28;20024;-77
2022/09/16 07:56:05;;;;;;;0.10;0.10;;;23.00;99.90;;;;;;5059436;28;20038;-77
2022/09/16 07:58:32;;;;;;;0.10;0.10;;;23.00;99.90;;;;;;5077475;28;20024;-78
2022/09/16 08:00:58;;;;;;;0.05;0.05;;;;;;;;;;5077876;28;20117;-77
2022/09/16 08:03:27;;;;;;;1.00;1.00;;;23.20;99.90;;;;;;5077918;28;20032;-76
2022/09/16 08:05:59;;;;;;;0.10;0.10;;;23.50;99.90;;;;;;5077716;28;20020;-77
2022/09/16 08:08:25;;;;;;;0.00;0.00;;;23.90;98.60;;;;;;5077715;28;20028;-77
2022/09/16 08:10:55;;;;;;;0.00;0.00;;;23.80;99.00;;;;;;5078160;28;20043;-77
2022/09/16 08:13:28;;;;;;;0.00;0.00;;;20.60;97.90;;;;;;5059586;28;20028;-77
2022/09/16 08:15:54;;;;;;;0.00;0.00;;;21.80;97.30;;;;;;5077116;28;20024;-76
2022/09/16 08:18:20;;;;;;;0.00;0.00;;;24.60;97.40;;;;;;5059270;28;20020;-76
2022/09/16 08:20:46;;;;;;;0.00;0.00;;;24.90;97.20;;;;;;5078795;28;20031;-77
2022/09/16 08:23:13;;;;;;;0.00;0.00;;;25.20;96.80;;;;;;5060561;28;20044;-77
2022/09/16 08:25:40;;;;;;;0.00;0.00;;;25.30;95.90;;;;;;5080061;28;20043;-77
2022/09/16 08:28:14;;;;;;;0.10;0.10;;;25.30;95.20;;;;;;5061715;28;20143;-79
2022/09/16 08:30:40;;;;;;;0.30;0.30;;;25.30;95.50;;;;;;5061916;28;20027;-78
2022/09/16 08:33:06;;;;;;;0.52;0.52;;;;;;;;;;5079850;28;20020;-77
2022/09/16 08:35:32;;;;;;;0.00;0.00;;;25.10;95.60;;;;;;5078380;28;20049;-77
2022/09/16 08:37:58;;;;;;;0.00;0.00;;;25.10;95.80;;;;;;5079791;28;20023;-78
2022/09/16 08:40:33;;;;;;;0.03;0.03;;;25.10;95.70;;;;;;5078800;28;20246;-84
2022/09/16 08:43:27;;;;;;;0.10;0.10;;;25.10;95.70;;;;;;5077744;28;20510;-77
2022/09/16 08:46:21;;;;;;;0.00;0.00;;;25.00;95.90;;;;;;5078392;28;20079;-87
2022/09/16 08:48:57;;;;;;;0.00;0.00;;;25.30;96.00;;;;;;5077752;28;20506;-77
2022/09/16 08:51:24;;;;;;;0.00;0.00;;;25.20;96.40;;;;;;5079279;28;20055;-79
2022/09/16 08:54:10;;;;;;;0.00;0.00;;;25.40;96.20;;;;;;5059511;28;20482;-79
2022/09/16 08:56:37;;;;;;;0.10;0.10;;;26.20;96.30;;;;;;5077883;28;20035;-78
2022/09/16 08:59:10;;;;;;;0.00;0.00;;;25.60;95.80;;;;;;5059953;28;20048;-84
2022/09/16 09:01:54;;;;;;;2.50;2.35;;;25.80;95.80;;;;;;5077346;28;20468;-77
2022/09/16 09:04:20;;;;;;;0.00;0.00;;;25.80;95.40;;;;;;5081074;28;20518;-77
2022/09/16 09:07:07;;;;;;;0.00;0.00;;;25.90;94.90;;;;;;5081416;28;20374;-81
2022/09/16 09:09:47;;;;;;;0.20;0.20;;;26.10;94.90;;;;;;5080837;28;20104;-76
2022/09/16 09:12:17;;;;;;;0.00;0.00;;;26.20;94.80;;;;;;5062385;28;20032;-78
2022/09/16 09:15:03;;;;;;;0.00;0.00;;;25.30;94.40;;;;;;5080978;28;20358;-78
2022/09/16 09:18:13;;;;;;;0.00;0.00;;;26.20;94.60;;;;;;5081136;28;20016;-78
2022/09/16 09:20:56;;;;;;;0.35;0.35;;;26.30;95.00;;;;;;5062492;28;20027;-77
2022/09/16 09:23:50;;;;;;;0.00;0.00;;;26.10;95.10;;;;;;5080857;28;20382;-77
2022/09/16 09:26:23;;;;;;;0.00;0.00;;;26.10;95.30;;;;;;5081220;28;20285;-82
2022/09/16 09:29:12;;;;;;;0.00;0.00;;;25.80;95.60;;;;;;5063820;28;20028;-83
2022/09/16 09:31:47;;;;;;;0.00;0.00;;;25.80;95.50;;;;;;5063499;28;20762;-76
2022/09/16 09:34:42;;;;;;;0.00;0.00;;;25.80;95.20;;;;;;5082685;28;20031;-77
2022/09/16 09:37:26;;;;;;;0.00;0.00;;;25.60;94.50;;;;;;5059898;28;20028;-77
2022/09/16 09:40:01;;;;;;;0.00;0.00;;;25.70;95.20;;;;;;5063953;28;20024;-81
2022/09/16 09:42:41;;;;;;;1.25;1.20;;;25.60;95.20;;;;;;5083454;28;20063;-83
2022/09/16 09:45:30;;;;;;;0.10;0.10;;;25.60;94.90;;;;;;5081189;28;20328;-79
2022/09/16 09:48:14;;;;;;;0.00;0.00;;;25.70;95.20;;;;;;5081474;28;20020;-82
2022/09/16 09:50:44;;;;;;;0.10;0.10;;;25.70;95.10;;;;;;5083222;28;20268;-77
2022/09/16 09:53:32;;;;;;;0.00;0.00;;;25.40;95.50;;;;;;5081182;28;20024;-81
2022/09/16 09:56:20;;;;;;;0.00;0.00;;;24.10;95.00;;;;;;5080941;28;20027;-77
2022/09/16 09:59:01;;;;;;;3.30;3.10;;;25.50;95.10;;;;;;5082289;28;20437;-82
2022/09/16 10:01:27;;;;;;;0.00;0.00;;;25.50;95.20;;;;;;5063583;28;20028;-81
2022/09/16 10:03:56;;;;;;;0.00;0.00;;;25.30;95.50;;;;;;5083298;28;20024;-82
2022/09/16 10:06:29;;;;;;;0.00;0.00;;;25.30;95.10;;;;;;5082413;28;20097;-77
2022/09/16 10:08:57;;;;;;;0.00;0.00;;;25.20;95.30;;;;;;5081180;28;20032;-76
2022/09/16 10:11:27;;;;;;;0.00;0.00;;;25.10;95.70;;;;;;5081022;28;20085;-78
2022/09/16 10:13:58;;;;;;;0.10;0.10;;;24.70;95.60;;;;;;5080759;28;20113;-76
2022/09/16 10:16:37;;;;;;;0.00;0.00;;;24.70;95.80;;;;;;5081170;28;20031;-78
2022/09/16 10:19:15;;;;;;;0.00;0.00;;;24.70;95.90;;;;;;5081058;28;20309;-76
2022/09/16 10:21:49;;;;;;;0.00;0.00;;;24.60;96.40;;;;;;5081029;28;20024;-77
2022/09/16 10:24:29;;;;;;;0.10;0.10;;;24.50;96.30;;;;;;5082413;28;20153;-76
2022/09/16 10:26:57;;;;;;;0.00;0.00;;;24.40;96.30;;;;;;5081461;28;20055;-78
2022/09/16 10:29:22;;;;;;;0.00;0.00;;;24.30;96.50;;;;;;5081581;28;20624;-79
2022/09/16 10:31:49;;;;;;;0.10;0.10;;;24.30;96.20;;;;;;5080496;28;20288;-79
2022/09/16 10:34:37;;;;;;;0.10;0.10;;;24.30;96.70;;;;;;5061913;28;20020;-77
2022/09/16 10:37:12;;;;;;;0.00;0.00;;;24.30;96.50;;;;;;5080524;28;20070;-78
2022/09/16 10:39:54;;;;;;;0.10;0.10;;;24.30;96.80;;;;;;5061732;28;20020;-82
2022/09/16 10:42:27;;;;;;;0.00;0.00;;;24.40;96.50;;;;;;5079765;28;20036;-76
2022/09/16 10:45:22;;;;;;;0.00;0.00;;;24.30;96.90;;;;;;5080381;28;20105;-78
2022/09/16 10:47:55;;;;;;;0.08;0.08;;;24.40;96.80;;;;;;5070534;28;20044;-79
2022/09/16 10:50:21;;;;;;;1.27;1.08;;;24.40;97.10;;;;;;5080327;28;20073;-78
2022/09/16 10:52:47;;;;;;;0.00;0.00;;;24.30;97.50;;;;;;5062015;28;20266;-77
2022/09/16 10:55:21;;;;;;;0.00;0.00;;;24.30;97.40;;;;;;5079721;28;20168;-81
2022/09/16 10:57:47;;;;;;;0.10;0.10;;;24.40;97.50;;;;;;5079429;28;20042;-80
2022/09/16 11:00:17;;;;;;;29.70;5.95;;;24.20;97.60;;;;;;5079117;28;20020;-81
2022/09/16 11:03:10;;;;;;;0.10;0.10;;;24.20;97.90;;;;;;5079271;28;20310;-76
2022/09/16 11:05:37;;;;;;;0.00;0.00;;;27.00;98.50;;;;;;5061017;28;20435;-82
2022/09/16 11:08:25;;;;;;;0.10;0.10;;;24.10;97.90;;;;;;5080305;28;20016;-79
2022/09/16 11:11:40;;;;;;;0.00;0.00;;;24.40;97.40;;;;;;5079075;28;20514;-77
2022/09/16 11:14:11;;;;;;;;;;;24.50;97.20;;;;;;4959689;28;20520;-87
2022/09/16 11:17:10;;;;;;;1.10;0.90;;;24.80;96.40;;;;;;4976449;28;19916;-84
2022/09/16 11:20:05;;;;;;;0.10;0.10;;;25.00;96.50;;;;;;4960323;28;20537;-77
2022/09/16 11:22:31;;;;;;;0.00;0.00;;;25.40;96.00;;;;;;4961087;28;20247;-84
2022/09/16 11:25:21;;;;;;;0.05;0.05;;;25.50;95.90;;;;;;4976300;28;20194;-84
2022/09/16 11:28:19;;;;;;;0.00;0.00;;;25.50;95.50;;;;;;4977127;28;20133;-77
2022/09/16 11:31:04;;;;;;;0.00;0.00;;;26.50;95.20;;;;;;4977514;28;20650;-77
2022/09/16 11:33:45;;;;;;;0.00;0.00;;;21.90;94.20;;;;;;4977232;28;20019;-78
2022/09/16 11:37:06;;;;;;;0.10;0.10;;;25.40;95.50;;;;;;4976065;28;20026;-79
2022/09/16 11:39:55;;;;;;;0.00;0.00;;;25.60;94.80;;;;;;4847278;29;20037;-78
2022/09/16 11:42:26;;;;;;;0.10;0.10;;;26.10;94.20;;;;;;4862637;29;20082;-84
2022/09/16 11:45:06;;;;;;;0.10;0.10;;;26.40;93.60;;;;;;4862518;29;20044;-77
2022/09/16 11:48:01;;;;;;;0.00;0.00;;;26.90;93.60;;;;;;4863150;29;20029;-81
2022/09/16 11:50:40;;;;;;;0.00;0.00;;;27.40;92.20;;;;;;4908521;29;20066;-84
2022/09/16 11:53:09;;;;;;;0.00;0.00;;;27.70;91.10;;;;;;4942698;29;20345;-76
2022/09/16 11:55:44;;;;;;;0.00;0.00;;;27.60;91.40;;;;;;4940904;29;20039;-75
2022/09/16 11:58:34;;;;;;;0.00;0.00;;;28.10;90.90;;;;;;4924465;29;20028;-76
2022/09/16 12:01:11;;;;;;;0.00;0.00;;;28.30;90.40;;;;;;4919595;28;20660;-76
2022/09/16 12:03:52;;;;;;;0.00;0.00;;;27.80;90.30;;;;;;4926830;29;20047;-77
2022/09/16 12:06:23;;;;;;;0.00;0.00;;;27.70;90.20;;;;;;4942747;29;20026;-80
2022/09/16 12:09:05;;;;;;;0.00;0.00;;;28.40;90.80;;;;;;4941693;29;20051;-82
2022/09/16 12:11:55;;;;;;;0.00;0.00;;;28.00;90.50;;;;;;4942208;29;20035;-77
2022/09/16 12:14:33;;;;;;;4.43;0.90;;;27.80;90.30;;;;;;4936073;28;20715;-77
2022/09/16 12:17:11;;;;;;;0.00;0.00;;;27.30;90.40;;;;;;5034274;28;20040;-78
2022/09/16 12:19:53;;;;;;;0.00;0.00;;;27.30;90.90;;;;;;5060682;28;20039;-78
2022/09/16 12:22:27;;;;;;;0.00;0.00;;;27.40;90.70;;;;;;5043480;28;20025;-79
2022/09/16 12:25:14;;;;;;;0.00;0.00;;;27.70;90.40;;;;;;5060198;28;20236;-80
2022/09/16 12:27:52;;;;;;;0.00;0.00;;;27.60;90.10;;;;;;5040852;28;20063;-78
2022/09/16 12:30:30;;;;;;;0.00;0.00;;;27.50;89.60;;;;;;5058599;28;20563;-82
2022/09/16 12:33:20;;;;;;;0.00;0.00;;;28.40;90.30;;;;;;5058707;28;20032;-81
2022/09/16 12:36:26;;;;;;;0.00;0.00;;;28.10;90.10;;;;;;5039515;28;20083;-84
2022/09/16 12:38:57;;;;;;;0.00;0.00;;;28.60;87.40;;;;;;4978871;28;20027;-80
2022/09/16 12:41:37;;;;;;;0.00;0.00;;;27.70;87.90;;;;;;4963047;28;20069;-76
2022/09/16 12:44:25;;;;;;;0.00;0.00;;;29.20;89.70;;;;;;4978673;28;20069;-76
2022/09/16 12:47:12;;;;;;;0.00;0.00;;;28.30;88.40;;;;;;4969953;28;20037;-76
2022/09/16 12:49:58;;;;;;;0.00;0.00;;;28.70;87.10;;;;;;4962776;28;20026;-80
2022/09/16 12:52:49;;;;;;;0.00;0.00;;;26.40;83.70;;;;;;4978725;28;20421;-77
2022/09/16 12:55:42;;;;;;;0.00;0.00;;;29.40;85.00;;;;;;4978421;28;20023;-78
2022/09/16 12:58:18;;;;;;;0.10;0.10;;;29.40;82.20;;;;;;4979107;28;20027;-79
2022/09/16 13:01:05;;;;;;;0.00;0.00;;;25.70;82.60;;;;;;4978573;28;20387;-81
2022/09/16 13:03:36;;;;;;;0.00;0.00;;;27.60;84.20;;;;;;4962314;28;20046;-79
2022/09/16 13:08:37;;;;;;;0.00;0.00;;;;;;;;;;5170833;23;20251;-78
2022/09/16 13:11:24;;;;;;;0.00;0.00;;;27.20;85.20;;;;;;5080768;28;20063;-79
2022/09/16 13:13:54;;;;;;;0.00;0.00;;;27.40;85.10;;;;;;5080528;28;20099;-83
2022/09/16 13:16:28;;;;;;;0.00;0.00;;;27.40;86.10;;;;;;5081522;28;20113;-81
2022/09/16 13:19:14;;;;;;;19.92;12.40;;;27.10;86.20;;;;;;5083607;28;20365;-78
2022/09/16 13:21:46;;;;;;;2.40;1.35;;;26.90;87.00;;;;;;5082263;28;20066;-81
2022/09/16 13:24:35;;;;;;;0.00;0.00;;;26.20;87.30;;;;;;5062830;28;20031;-77
2022/09/16 13:27:01;;;;;;;0.00;0.00;;;23.70;84.80;;;;;;5062498;28;20121;-78
2022/09/16 13:29:32;;;;;;;0.10;0.10;;;26.80;89.80;;;;;;5081824;28;20081;-78
2022/09/16 13:31:59;;;;;;;0.00;0.00;;;25.70;89.30;;;;;;5082340;28;20028;-77